sensor_id;sensor_type;location;lat;lon;timestamp;P1;durP1;ratioP1;P2;durP2;ratioP2
7247;SDS011;3665;51.034;13.642;2022-07-06T00:02:35;3.07;;;2.53;;
7247;SDS011;3665;51.034;13.642;2022-07-06T00:07:19;4.00;;;2.50;;
7247;SDS011;3665;51.034;13.642;2022-07-06T00:12:04;3.10;;;2.50;;
7247;SDS011;3665;51.034;13.642;2022-07-06T00:16:48;2.70;;;2.50;;
7247;SDS011;3665;51.034;13.642;2022-07-06T00:21:33;3.37;;;2.77;;
7247;SDS011;3665;51.034;13.642;2022-07-06T00:26:17;5.23;;;2.80;;
7247;SDS011;3665;51.034;13.642;2022-07-06T00:31:01;4.70;;;2.37;;
7247;SDS011;3665;51.034;13.642;2022-07-06T00:35:45;3.33;;;3.00;;
7247;SDS011;3665;51.034;13.642;2022-07-06T00:40:30;3.77;;;2.50;;
7247;SDS011;3665;51.034;13.642;2022-07-06T00:45:14;3.93;;;3.20;;
7247;SDS011;3665;51.034;13.642;2022-07-06T00:49:59;3.60;;;3.30;;
7247;SDS011;3665;51.034;13.642;2022-07-06T00:54:59;4.27;;;3.70;;
7247;SDS011;3665;51.034;13.642;2022-07-06T00:59:45;6.53;;;3.80;;
7247;SDS011;3665;51.034;13.642;2022-07-06T01:04:29;4.30;;;3.90;;
7247;SDS011;3665;51.034;13.642;2022-07-06T01:09:12;5.50;;;3.30;;
7247;SDS011;3665;51.034;13.642;2022-07-06T01:13:56;3.43;;;3.03;;
7247;SDS011;3665;51.034;13.642;2022-07-06T01:18:41;3.80;;;3.17;;
7247;SDS011;3665;51.034;13.642;2022-07-06T01:23:27;3.70;;;2.87;;
7247;SDS011;3665;51.034;13.642;2022-07-06T01:28:10;2.83;;;2.60;;
7247;SDS011;3665;51.034;13.642;2022-07-06T01:32:54;4.17;;;2.83;;
7247;SDS011;3665;51.034;13.642;2022-07-06T01:37:37;3.03;;;2.30;;
7247;SDS011;3665;51.034;13.642;2022-07-06T01:42:23;3.00;;;2.53;;
7247;SDS011;3665;51.034;13.642;2022-07-06T01:47:06;3.60;;;2.53;;
7247;SDS011;3665;51.034;13.642;2022-07-06T01:51:50;2.83;;;2.63;;
7247;SDS011;3665;51.034;13.642;2022-07-06T01:56:35;3.13;;;2.87;;
7247;SDS011;3665;51.034;13.642;2022-07-06T02:01:21;3.30;;;3.00;;
7247;SDS011;3665;51.034;13.642;2022-07-06T02:06:05;3.47;;;2.83;;
7247;SDS011;3665;51.034;13.642;2022-07-06T02:10:50;3.17;;;2.87;;
7247;SDS011;3665;51.034;13.642;2022-07-06T02:15:33;2.93;;;2.60;;
7247;SDS011;3665;51.034;13.642;2022-07-06T02:20:19;3.23;;;3.03;;
7247;SDS011;3665;51.034;13.642;2022-07-06T02:25:03;3.47;;;3.17;;
7247;SDS011;3665;51.034;13.642;2022-07-06T02:29:48;3.80;;;3.40;;
7247;SDS011;3665;51.034;13.642;2022-07-06T02:34:32;3.10;;;2.90;;
7247;SDS011;3665;51.034;13.642;2022-07-06T02:39:17;3.33;;;2.80;;
7247;SDS011;3665;51.034;13.642;2022-07-06T02:44:01;3.33;;;3.03;;
7247;SDS011;3665;51.034;13.642;2022-07-06T02:48:45;2.93;;;2.73;;
7247;SDS011;3665;51.034;13.642;2022-07-06T02:53:29;4.07;;;2.77;;
7247;SDS011;3665;51.034;13.642;2022-07-06T02:58:15;2.90;;;2.37;;
7247;SDS011;3665;51.034;13.642;2022-07-06T03:02:58;3.03;;;2.80;;
7247;SDS011;3665;51.034;13.642;2022-07-06T03:07:43;2.67;;;2.47;;
7247;SDS011;3665;51.034;13.642;2022-07-06T03:12:28;2.87;;;2.67;;
7247;SDS011;3665;51.034;13.642;2022-07-06T03:17:13;2.60;;;2.40;;
7247;SDS011;3665;51.034;13.642;2022-07-06T03:21:57;2.80;;;2.57;;
7247;SDS011;3665;51.034;13.642;2022-07-06T03:26:41;3.33;;;3.03;;
7247;SDS011;3665;51.034;13.642;2022-07-06T03:31:26;3.70;;;3.40;;
7247;SDS011;3665;51.034;13.642;2022-07-06T03:36:12;3.50;;;2.50;;
7247;SDS011;3665;51.034;13.642;2022-07-06T03:40:57;3.07;;;2.77;;
7247;SDS011;3665;51.034;13.642;2022-07-06T03:45:40;3.70;;;2.50;;
7247;SDS011;3665;51.034;13.642;2022-07-06T03:50:24;2.40;;;2.30;;
7247;SDS011;3665;51.034;13.642;2022-07-06T03:55:10;3.37;;;3.07;;
7247;SDS011;3665;51.034;13.642;2022-07-06T03:59:59;2.93;;;2.70;;
7247;SDS011;3665;51.034;13.642;2022-07-06T04:04:44;3.27;;;2.40;;
7247;SDS011;3665;51.034;13.642;2022-07-06T04:09:28;7.10;;;2.70;;
7247;SDS011;3665;51.034;13.642;2022-07-06T04:14:14;4.03;;;2.67;;
7247;SDS011;3665;51.034;13.642;2022-07-06T04:18:58;4.60;;;2.90;;
7247;SDS011;3665;51.034;13.642;2022-07-06T04:23:42;3.03;;;2.83;;
7247;SDS011;3665;51.034;13.642;2022-07-06T04:28:27;3.50;;;3.20;;
7247;SDS011;3665;51.034;13.642;2022-07-06T04:33:13;3.33;;;3.13;;
7247;SDS011;3665;51.034;13.642;2022-07-06T04:37:59;3.50;;;3.20;;
7247;SDS011;3665;51.034;13.642;2022-07-06T04:42:43;3.47;;;3.10;;
7247;SDS011;3665;51.034;13.642;2022-07-06T04:47:27;3.77;;;3.27;;
7247;SDS011;3665;51.034;13.642;2022-07-06T04:52:12;8.43;;;3.40;;
7247;SDS011;3665;51.034;13.642;2022-07-06T04:56:57;3.77;;;3.30;;
7247;SDS011;3665;51.034;13.642;2022-07-06T05:01:42;4.90;;;3.37;;
7247;SDS011;3665;51.034;13.642;2022-07-06T05:06:25;3.67;;;2.63;;
7247;SDS011;3665;51.034;13.642;2022-07-06T05:11:40;2.63;;;2.43;;
7247;SDS011;3665;51.034;13.642;2022-07-06T05:16:24;4.70;;;2.60;;
7247;SDS011;3665;51.034;13.642;2022-07-06T05:21:08;6.03;;;2.57;;
7247;SDS011;3665;51.034;13.642;2022-07-06T05:25:52;2.47;;;2.07;;
7247;SDS011;3665;51.034;13.642;2022-07-06T05:30:38;5.67;;;2.17;;
7247;SDS011;3665;51.034;13.642;2022-07-06T05:35:23;4.90;;;2.23;;
7247;SDS011;3665;51.034;13.642;2022-07-06T05:40:27;3.17;;;1.97;;
7247;SDS011;3665;51.034;13.642;2022-07-06T05:45:12;4.77;;;1.97;;
7247;SDS011;3665;51.034;13.642;2022-07-06T05:49:59;5.67;;;2.20;;
7247;SDS011;3665;51.034;13.642;2022-07-06T05:55:07;3.13;;;1.83;;
7247;SDS011;3665;51.034;13.642;2022-07-06T05:59:52;3.40;;;1.70;;
7247;SDS011;3665;51.034;13.642;2022-07-06T06:04:39;4.57;;;2.00;;
7247;SDS011;3665;51.034;13.642;2022-07-06T06:09:24;3.23;;;1.40;;
7247;SDS011;3665;51.034;13.642;2022-07-06T06:14:08;4.13;;;1.30;;
7247;SDS011;3665;51.034;13.642;2022-07-06T06:18:51;2.80;;;1.50;;
7247;SDS011;3665;51.034;13.642;2022-07-06T06:23:35;2.50;;;1.73;;
7247;SDS011;3665;51.034;13.642;2022-07-06T06:28:20;2.33;;;1.50;;
7247;SDS011;3665;51.034;13.642;2022-07-06T06:33:05;3.87;;;1.67;;
7247;SDS011;3665;51.034;13.642;2022-07-06T06:37:50;2.10;;;1.30;;
7247;SDS011;3665;51.034;13.642;2022-07-06T06:42:35;2.63;;;1.37;;
7247;SDS011;3665;51.034;13.642;2022-07-06T06:47:27;4.60;;;1.50;;
7247;SDS011;3665;51.034;13.642;2022-07-06T06:52:11;3.43;;;1.40;;
7247;SDS011;3665;51.034;13.642;2022-07-06T06:57:15;4.17;;;1.70;;
7247;SDS011;3665;51.034;13.642;2022-07-06T07:01:58;4.70;;;1.70;;
7247;SDS011;3665;51.034;13.642;2022-07-06T07:06:44;3.43;;;1.30;;
7247;SDS011;3665;51.034;13.642;2022-07-06T07:11:28;1.70;;;1.50;;
7247;SDS011;3665;51.034;13.642;2022-07-06T07:16:12;2.63;;;1.47;;
7247;SDS011;3665;51.034;13.642;2022-07-06T07:21:00;4.13;;;1.20;;
7247;SDS011;3665;51.034;13.642;2022-07-06T07:25:45;1.27;;;1.17;;
7247;SDS011;3665;51.034;13.642;2022-07-06T07:30:28;1.80;;;1.50;;
7247;SDS011;3665;51.034;13.642;2022-07-06T07:35:12;2.03;;;1.33;;
7247;SDS011;3665;51.034;13.642;2022-07-06T07:39:58;4.40;;;1.50;;
7247;SDS011;3665;51.034;13.642;2022-07-06T07:44:45;2.00;;;1.00;;
7247;SDS011;3665;51.034;13.642;2022-07-06T07:49:29;1.53;;;1.20;;
7247;SDS011;3665;51.034;13.642;2022-07-06T07:54:12;3.87;;;1.40;;
7247;SDS011;3665;51.034;13.642;2022-07-06T07:58:57;2.53;;;1.53;;
7247;SDS011;3665;51.034;13.642;2022-07-06T08:03:46;2.33;;;1.30;;
7247;SDS011;3665;51.034;13.642;2022-07-06T08:08:30;2.20;;;1.33;;
7247;SDS011;3665;51.034;13.642;2022-07-06T08:13:37;2.20;;;1.00;;
7247;SDS011;3665;51.034;13.642;2022-07-06T08:18:21;1.67;;;0.87;;
7247;SDS011;3665;51.034;13.642;2022-07-06T08:23:07;2.87;;;1.17;;
7247;SDS011;3665;51.034;13.642;2022-07-06T08:27:51;3.40;;;1.10;;
7247;SDS011;3665;51.034;13.642;2022-07-06T08:32:38;2.17;;;0.97;;
7247;SDS011;3665;51.034;13.642;2022-07-06T08:37:41;2.10;;;1.07;;
7247;SDS011;3665;51.034;13.642;2022-07-06T08:42:29;1.87;;;1.20;;
7247;SDS011;3665;51.034;13.642;2022-07-06T08:47:30;1.60;;;1.00;;
7247;SDS011;3665;51.034;13.642;2022-07-06T08:52:13;2.93;;;1.10;;
7247;SDS011;3665;51.034;13.642;2022-07-06T08:56:57;3.63;;;0.90;;
7247;SDS011;3665;51.034;13.642;2022-07-06T09:01:45;1.20;;;1.10;;
7247;SDS011;3665;51.034;13.642;2022-07-06T09:06:30;1.50;;;0.90;;
7247;SDS011;3665;51.034;13.642;2022-07-06T09:11:14;3.77;;;1.40;;
7247;SDS011;3665;51.034;13.642;2022-07-06T09:16:08;1.97;;;1.00;;
7247;SDS011;3665;51.034;13.642;2022-07-06T09:21:23;1.63;;;0.90;;
7247;SDS011;3665;51.034;13.642;2022-07-06T09:26:08;3.13;;;1.10;;
7247;SDS011;3665;51.034;13.642;2022-07-06T09:30:54;1.83;;;1.17;;
7247;SDS011;3665;51.034;13.642;2022-07-06T09:35:46;2.05;;;1.00;;
7247;SDS011;3665;51.034;13.642;2022-07-06T09:40:32;2.38;;;0.95;;
7247;SDS011;3665;51.034;13.642;2022-07-06T09:45:19;3.10;;;1.10;;
7247;SDS011;3665;51.034;13.642;2022-07-06T09:50:07;1.95;;;1.10;;
7247;SDS011;3665;51.034;13.642;2022-07-06T09:54:51;1.77;;;1.17;;
7247;SDS011;3665;51.034;13.642;2022-07-06T09:59:50;3.03;;;0.90;;
7247;SDS011;3665;51.034;13.642;2022-07-06T10:04:34;2.03;;;1.05;;
7247;SDS011;3665;51.034;13.642;2022-07-06T10:09:19;3.92;;;1.15;;
7247;SDS011;3665;51.034;13.642;2022-07-06T10:14:06;3.25;;;1.15;;
7247;SDS011;3665;51.034;13.642;2022-07-06T10:18:55;2.08;;;1.17;;
7247;SDS011;3665;51.034;13.642;2022-07-06T10:23:40;2.15;;;1.13;;
7247;SDS011;3665;51.034;13.642;2022-07-06T10:28:25;3.33;;;0.82;;
7247;SDS011;3665;51.034;13.642;2022-07-06T10:33:11;2.70;;;0.82;;
7247;SDS011;3665;51.034;13.642;2022-07-06T10:38:06;2.42;;;0.93;;
7247;SDS011;3665;51.034;13.642;2022-07-06T10:42:55;3.22;;;1.00;;
7247;SDS011;3665;51.034;13.642;2022-07-06T10:47:41;1.52;;;1.05;;
7247;SDS011;3665;51.034;13.642;2022-07-06T11:02:45;2.05;;;1.20;;
7247;SDS011;3665;51.034;13.642;2022-07-06T11:07:28;3.22;;;1.00;;
7247;SDS011;3665;51.034;13.642;2022-07-06T11:12:16;2.70;;;1.10;;
7247;SDS011;3665;51.034;13.642;2022-07-06T11:17:02;2.00;;;1.00;;
7247;SDS011;3665;51.034;13.642;2022-07-06T11:21:52;2.05;;;1.20;;
7247;SDS011;3665;51.034;13.642;2022-07-06T11:26:38;2.23;;;1.07;;
7247;SDS011;3665;51.034;13.642;2022-07-06T11:31:40;1.30;;;1.20;;
7247;SDS011;3665;51.034;13.642;2022-07-06T11:36:26;2.63;;;1.27;;
7247;SDS011;3665;51.034;13.642;2022-07-06T11:41:18;3.53;;;1.10;;
7247;SDS011;3665;51.034;13.642;2022-07-06T11:46:02;2.03;;;1.02;;
7247;SDS011;3665;51.034;13.642;2022-07-06T11:50:56;2.03;;;0.90;;
7247;SDS011;3665;51.034;13.642;2022-07-06T11:55:41;2.03;;;1.00;;
7247;SDS011;3665;51.034;13.642;2022-07-06T12:00:26;3.00;;;1.13;;
7247;SDS011;3665;51.034;13.642;2022-07-06T12:05:10;3.60;;;1.20;;
7247;SDS011;3665;51.034;13.642;2022-07-06T12:09:54;2.03;;;0.90;;
7247;SDS011;3665;51.034;13.642;2022-07-06T12:14:38;3.95;;;1.40;;
7247;SDS011;3665;51.034;13.642;2022-07-06T12:19:25;1.92;;;1.02;;
7247;SDS011;3665;51.034;13.642;2022-07-06T12:24:09;3.00;;;1.00;;
7247;SDS011;3665;51.034;13.642;2022-07-06T12:28:59;4.22;;;1.20;;
7247;SDS011;3665;51.034;13.642;2022-07-06T12:33:55;4.00;;;1.10;;
7247;SDS011;3665;51.034;13.642;2022-07-06T12:38:46;2.40;;;1.20;;
7247;SDS011;3665;51.034;13.642;2022-07-06T12:43:38;2.13;;;0.82;;
7247;SDS011;3665;51.034;13.642;2022-07-06T12:48:23;1.80;;;0.95;;
7247;SDS011;3665;51.034;13.642;2022-07-06T12:53:22;2.55;;;1.10;;
7247;SDS011;3665;51.034;13.642;2022-07-06T12:58:12;0.95;;;0.90;;
7247;SDS011;3665;51.034;13.642;2022-07-06T13:03:01;2.65;;;1.10;;
7247;SDS011;3665;51.034;13.642;2022-07-06T13:08:02;3.33;;;0.88;;
7247;SDS011;3665;51.034;13.642;2022-07-06T13:12:46;1.75;;;1.08;;
7247;SDS011;3665;51.034;13.642;2022-07-06T13:17:33;2.97;;;1.10;;
7247;SDS011;3665;51.034;13.642;2022-07-06T13:22:17;3.70;;;1.25;;
7247;SDS011;3665;51.034;13.642;2022-07-06T13:27:02;2.33;;;1.10;;
7247;SDS011;3665;51.034;13.642;2022-07-06T13:31:46;1.65;;;0.70;;
7247;SDS011;3665;51.034;13.642;2022-07-06T13:36:35;2.17;;;0.80;;
7247;SDS011;3665;51.034;13.642;2022-07-06T13:41:23;2.63;;;1.23;;
7247;SDS011;3665;51.034;13.642;2022-07-06T13:46:07;1.77;;;1.00;;
7247;SDS011;3665;51.034;13.642;2022-07-06T13:50:52;5.53;;;1.15;;
7247;SDS011;3665;51.034;13.642;2022-07-06T13:55:38;1.95;;;0.93;;
7247;SDS011;3665;51.034;13.642;2022-07-06T14:00:22;0.73;;;0.73;;
7247;SDS011;3665;51.034;13.642;2022-07-06T14:05:06;2.42;;;0.70;;
7247;SDS011;3665;51.034;13.642;2022-07-06T14:09:53;2.17;;;0.80;;
7247;SDS011;3665;51.034;13.642;2022-07-06T14:14:38;2.83;;;0.90;;
7247;SDS011;3665;51.034;13.642;2022-07-06T14:19:23;1.17;;;1.00;;
7247;SDS011;3665;51.034;13.642;2022-07-06T14:24:08;2.13;;;0.95;;
7247;SDS011;3665;51.034;13.642;2022-07-06T14:28:52;1.05;;;0.82;;
7247;SDS011;3665;51.034;13.642;2022-07-06T14:33:37;1.23;;;0.88;;
7247;SDS011;3665;51.034;13.642;2022-07-06T14:38:21;3.58;;;0.80;;
7247;SDS011;3665;51.034;13.642;2022-07-06T14:43:31;1.33;;;0.65;;
7247;SDS011;3665;51.034;13.642;2022-07-06T14:48:17;1.90;;;0.95;;
7247;SDS011;3665;51.034;13.642;2022-07-06T14:53:04;2.58;;;0.90;;
7247;SDS011;3665;51.034;13.642;2022-07-06T14:57:51;1.90;;;1.02;;
7247;SDS011;3665;51.034;13.642;2022-07-06T15:02:39;0.88;;;0.70;;
7247;SDS011;3665;51.034;13.642;2022-07-06T15:07:27;1.35;;;0.70;;
7247;SDS011;3665;51.034;13.642;2022-07-06T15:12:13;0.90;;;0.68;;
7247;SDS011;3665;51.034;13.642;2022-07-06T15:16:57;1.27;;;0.80;;
7247;SDS011;3665;51.034;13.642;2022-07-06T15:21:41;1.88;;;0.80;;
7247;SDS011;3665;51.034;13.642;2022-07-06T15:26:25;1.55;;;0.77;;
7247;SDS011;3665;51.034;13.642;2022-07-06T15:31:40;2.28;;;1.00;;
7247;SDS011;3665;51.034;13.642;2022-07-06T15:36:24;1.45;;;0.80;;
7247;SDS011;3665;51.034;13.642;2022-07-06T15:41:08;4.72;;;0.93;;
7247;SDS011;3665;51.034;13.642;2022-07-06T15:45:54;2.60;;;1.00;;
7247;SDS011;3665;51.034;13.642;2022-07-06T15:50:43;3.58;;;0.77;;
7247;SDS011;3665;51.034;13.642;2022-07-06T15:55:28;3.72;;;1.63;;
7247;SDS011;3665;51.034;13.642;2022-07-06T16:00:15;2.25;;;0.70;;
7247;SDS011;3665;51.034;13.642;2022-07-06T16:05:01;1.60;;;0.70;;
7247;SDS011;3665;51.034;13.642;2022-07-06T16:09:47;2.13;;;0.60;;
7247;SDS011;3665;51.034;13.642;2022-07-06T16:14:30;1.10;;;0.60;;
7247;SDS011;3665;51.034;13.642;2022-07-06T16:19:14;1.80;;;0.60;;
7247;SDS011;3665;51.034;13.642;2022-07-06T16:23:58;1.07;;;0.70;;
7247;SDS011;3665;51.034;13.642;2022-07-06T16:28:44;3.00;;;0.90;;
7247;SDS011;3665;51.034;13.642;2022-07-06T16:33:28;2.90;;;0.93;;
7247;SDS011;3665;51.034;13.642;2022-07-06T16:38:17;2.67;;;0.60;;
7247;SDS011;3665;51.034;13.642;2022-07-06T16:43:01;2.37;;;1.10;;
7247;SDS011;3665;51.034;13.642;2022-07-06T16:47:49;3.47;;;1.00;;
7247;SDS011;3665;51.034;13.642;2022-07-06T16:52:35;0.93;;;0.80;;
7247;SDS011;3665;51.034;13.642;2022-07-06T16:57:18;3.20;;;0.60;;
7247;SDS011;3665;51.034;13.642;2022-07-06T17:02:03;2.37;;;0.80;;
7247;SDS011;3665;51.034;13.642;2022-07-06T17:06:48;3.30;;;0.80;;
7247;SDS011;3665;51.034;13.642;2022-07-06T17:11:33;2.53;;;0.60;;
7247;SDS011;3665;51.034;13.642;2022-07-06T17:16:17;1.57;;;0.73;;
7247;SDS011;3665;51.034;13.642;2022-07-06T17:21:01;1.60;;;0.53;;
7247;SDS011;3665;51.034;13.642;2022-07-06T17:25:47;1.27;;;0.90;;
7247;SDS011;3665;51.034;13.642;2022-07-06T17:30:32;1.67;;;0.60;;
7247;SDS011;3665;51.034;13.642;2022-07-06T17:35:18;3.23;;;0.80;;
7247;SDS011;3665;51.034;13.642;2022-07-06T17:40:02;1.67;;;0.77;;
7247;SDS011;3665;51.034;13.642;2022-07-06T17:44:47;1.87;;;0.70;;
7247;SDS011;3665;51.034;13.642;2022-07-06T17:49:31;1.40;;;0.70;;
7247;SDS011;3665;51.034;13.642;2022-07-06T17:54:16;1.87;;;0.80;;
7247;SDS011;3665;51.034;13.642;2022-07-06T17:58:59;1.30;;;0.70;;
7247;SDS011;3665;51.034;13.642;2022-07-06T18:03:47;2.17;;;0.70;;
7247;SDS011;3665;51.034;13.642;2022-07-06T18:08:31;1.47;;;0.50;;
7247;SDS011;3665;51.034;13.642;2022-07-06T18:13:15;0.97;;;0.80;;
7247;SDS011;3665;51.034;13.642;2022-07-06T18:17:58;2.63;;;0.83;;
7247;SDS011;3665;51.034;13.642;2022-07-06T18:22:46;2.07;;;0.97;;
7247;SDS011;3665;51.034;13.642;2022-07-06T18:27:30;1.43;;;0.87;;
7247;SDS011;3665;51.034;13.642;2022-07-06T18:32:17;2.07;;;0.93;;
7247;SDS011;3665;51.034;13.642;2022-07-06T18:37:12;2.93;;;0.90;;
7247;SDS011;3665;51.034;13.642;2022-07-06T18:41:57;1.80;;;0.70;;
7247;SDS011;3665;51.034;13.642;2022-07-06T18:46:41;1.43;;;0.70;;
7247;SDS011;3665;51.034;13.642;2022-07-06T18:51:25;0.70;;;0.60;;
7247;SDS011;3665;51.034;13.642;2022-07-06T18:56:09;2.20;;;0.80;;
7247;SDS011;3665;51.034;13.642;2022-07-06T19:00:54;1.03;;;0.53;;
7247;SDS011;3665;51.034;13.642;2022-07-06T19:05:38;1.23;;;0.70;;
7247;SDS011;3665;51.034;13.642;2022-07-06T19:10:22;1.23;;;0.70;;
7247;SDS011;3665;51.034;13.642;2022-07-06T19:15:06;4.53;;;1.27;;
7247;SDS011;3665;51.034;13.642;2022-07-06T19:19:55;1.70;;;0.60;;
7247;SDS011;3665;51.034;13.642;2022-07-06T19:24:40;2.07;;;1.10;;
7247;SDS011;3665;51.034;13.642;2022-07-06T19:29:28;1.20;;;0.70;;
7247;SDS011;3665;51.034;13.642;2022-07-06T19:34:12;1.40;;;0.60;;
7247;SDS011;3665;51.034;13.642;2022-07-06T19:38:57;1.50;;;0.70;;
7247;SDS011;3665;51.034;13.642;2022-07-06T19:43:41;1.50;;;0.60;;
7247;SDS011;3665;51.034;13.642;2022-07-06T19:48:27;1.40;;;0.77;;
7247;SDS011;3665;51.034;13.642;2022-07-06T19:53:11;1.63;;;0.67;;
7247;SDS011;3665;51.034;13.642;2022-07-06T19:57:57;0.97;;;0.40;;
7247;SDS011;3665;51.034;13.642;2022-07-06T20:02:42;3.23;;;0.70;;
7247;SDS011;3665;51.034;13.642;2022-07-06T20:07:26;1.50;;;0.50;;
7247;SDS011;3665;51.034;13.642;2022-07-06T20:12:18;3.43;;;0.80;;
7247;SDS011;3665;51.034;13.642;2022-07-06T20:17:05;1.57;;;0.60;;
7247;SDS011;3665;51.034;13.642;2022-07-06T20:21:52;2.37;;;0.50;;
7247;SDS011;3665;51.034;13.642;2022-07-06T20:26:38;3.17;;;0.60;;
7247;SDS011;3665;51.034;13.642;2022-07-06T20:31:26;2.70;;;0.80;;
7247;SDS011;3665;51.034;13.642;2022-07-06T20:36:22;2.20;;;0.77;;
7247;SDS011;3665;51.034;13.642;2022-07-06T20:41:14;0.70;;;0.70;;
7247;SDS011;3665;51.034;13.642;2022-07-06T20:46:04;2.60;;;0.60;;
7247;SDS011;3665;51.034;13.642;2022-07-06T20:50:53;1.50;;;0.70;;
7247;SDS011;3665;51.034;13.642;2022-07-06T20:55:39;2.03;;;0.97;;
7247;SDS011;3665;51.034;13.642;2022-07-06T21:00:25;2.70;;;0.70;;
7247;SDS011;3665;51.034;13.642;2022-07-06T21:05:09;1.67;;;0.50;;
7247;SDS011;3665;51.034;13.642;2022-07-06T21:09:52;1.10;;;0.43;;
7247;SDS011;3665;51.034;13.642;2022-07-06T21:14:41;0.60;;;0.50;;
7247;SDS011;3665;51.034;13.642;2022-07-06T21:19:32;2.70;;;0.53;;
7247;SDS011;3665;51.034;13.642;2022-07-06T21:24:16;1.03;;;0.40;;
7247;SDS011;3665;51.034;13.642;2022-07-06T21:29:03;1.77;;;0.47;;
7247;SDS011;3665;51.034;13.642;2022-07-06T21:33:51;1.50;;;0.60;;
7247;SDS011;3665;51.034;13.642;2022-07-06T21:38:35;2.83;;;0.70;;
7247;SDS011;3665;51.034;13.642;2022-07-06T21:43:23;1.90;;;0.60;;
7247;SDS011;3665;51.034;13.642;2022-07-06T21:48:11;2.30;;;0.77;;
7247;SDS011;3665;51.034;13.642;2022-07-06T21:52:56;2.83;;;0.57;;
7247;SDS011;3665;51.034;13.642;2022-07-06T21:57:41;1.47;;;0.50;;
7247;SDS011;3665;51.034;13.642;2022-07-06T22:02:25;1.33;;;0.60;;
7247;SDS011;3665;51.034;13.642;2022-07-06T22:07:17;1.67;;;0.80;;
7247;SDS011;3665;51.034;13.642;2022-07-06T22:12:08;0.57;;;0.40;;
7247;SDS011;3665;51.034;13.642;2022-07-06T22:16:53;1.33;;;0.60;;
7247;SDS011;3665;51.034;13.642;2022-07-06T22:21:37;2.63;;;0.70;;
7247;SDS011;3665;51.034;13.642;2022-07-06T22:26:21;2.10;;;0.60;;
7247;SDS011;3665;51.034;13.642;2022-07-06T22:31:07;0.70;;;0.50;;
7247;SDS011;3665;51.034;13.642;2022-07-06T22:35:52;2.30;;;0.50;;
7247;SDS011;3665;51.034;13.642;2022-07-06T22:40:39;1.70;;;0.70;;
7247;SDS011;3665;51.034;13.642;2022-07-06T22:45:44;1.97;;;0.90;;
7247;SDS011;3665;51.034;13.642;2022-07-06T22:50:31;2.57;;;1.07;;
7247;SDS011;3665;51.034;13.642;2022-07-06T22:55:15;3.47;;;0.70;;
7247;SDS011;3665;51.034;13.642;2022-07-06T23:00:01;1.93;;;0.70;;
7247;SDS011;3665;51.034;13.642;2022-07-06T23:04:51;2.50;;;0.80;;
7247;SDS011;3665;51.034;13.642;2022-07-06T23:09:37;1.07;;;0.67;;
7247;SDS011;3665;51.034;13.642;2022-07-06T23:14:22;1.93;;;0.97;;
7247;SDS011;3665;51.034;13.642;2022-07-06T23:19:13;1.30;;;0.70;;
7247;SDS011;3665;51.034;13.642;2022-07-06T23:23:57;1.43;;;0.70;;
7247;SDS011;3665;51.034;13.642;2022-07-06T23:28:43;3.50;;;0.70;;
7247;SDS011;3665;51.034;13.642;2022-07-06T23:33:27;1.00;;;0.60;;
7247;SDS011;3665;51.034;13.642;2022-07-06T23:38:11;1.80;;;0.80;;
7247;SDS011;3665;51.034;13.642;2022-07-06T23:42:55;6.83;;;0.87;;
7247;SDS011;3665;51.034;13.642;2022-07-06T23:47:41;2.50;;;0.80;;
7247;SDS011;3665;51.034;13.642;2022-07-06T23:52:24;2.33;;;0.90;;
7247;SDS011;3665;51.034;13.642;2022-07-06T23:57:08;2.00;;;0.80;;
